Time;durP1;ratioP1;P1;durP2;ratioP2;P2;SDS_P1;SDS_P2;PMS_P1;PMS_P2;Temp;Humidity;BMP_temperature;BMP_pressure;BME280_temperature;BME280_humidity;BME280_pressure;Samples;Min_cycle;Max_cycle;Signal;HPM_P1;HPM_P2
2022/01/05 00:01:00;;;;;;;58.23;34.70;;;;;;;5.80;100.00;98875.00;5069320;28;20250;-61
2022/01/05 00:03:27;;;;;;;55.00;31.67;;;;;;;6.07;100.00;98922.56;5069800;28;20196;-62
2022/01/05 00:05:54;;;;;;;52.07;30.17;;;;;;;5.98;100.00;98915.03;5073189;28;20207;-60
2022/01/05 00:08:24;;;;;;;54.53;30.57;;;;;;;5.90;100.00;98932.34;5073119;28;20198;-60
2022/01/05 00:10:52;;;;;;;52.17;30.13;;;;;;;5.87;100.00;98940.13;5073229;28;20208;-60
2022/01/05 00:13:20;;;;;;;55.97;30.13;;;;;;;5.84;100.00;98936.72;5073304;28;20206;-60
2022/01/05 00:15:47;;;;;;;50.80;29.50;;;;;;;5.80;100.00;98924.75;5073345;28;20205;-60
2022/01/05 00:18:14;;;;;;;56.97;28.63;;;;;;;5.97;100.00;98939.94;5073074;28;20216;-62
2022/01/05 00:20:42;;;;;;;49.07;27.30;;;;;;;6.01;100.00;98935.56;5072893;28;20231;-62
2022/01/05 00:23:09;;;;;;;50.03;26.93;;;;;;;5.86;100.00;98935.84;5073154;28;20203;-62
2022/01/05 00:25:36;;;;;;;48.87;26.63;;;;;;;6.00;100.00;98933.84;5072629;28;20214;-62
2022/01/05 00:28:04;;;;;;;39.93;25.43;;;;;;;5.89;100.00;98921.19;5073171;28;20192;-62
2022/01/05 00:30:32;;;;;;;40.37;22.23;;;;;;;5.82;100.00;98929.88;5073042;28;20635;-61
2022/01/05 00:32:59;;;;;;;42.57;22.53;;;;;;;5.89;100.00;98936.63;5072786;28;20202;-60
2022/01/05 00:35:26;;;;;;;38.03;21.67;;;;;;;5.87;100.00;98933.22;5072499;28;20232;-60
2022/01/05 00:37:53;;;;;;;39.07;20.90;;;;;;;5.86;100.00;98935.84;5072580;28;20220;-61
2022/01/05 00:40:20;;;;;;;36.73;21.63;;;;;;;5.64;100.00;98915.66;5072703;28;20206;-62
2022/01/05 00:42:47;;;;;;;34.33;20.50;;;;;;;5.87;100.00;98942.69;5073150;28;20656;-62
2022/01/05 00:45:14;;;;;;;37.43;20.50;;;;;;;5.83;100.00;98927.28;5072805;28;20210;-60
2022/01/05 00:47:43;;;;;;;32.50;20.67;;;;;;;5.83;100.00;98939.31;5072527;28;20191;-61
2022/01/05 00:50:10;;;;;;;32.40;19.67;;;;;;;5.76;100.00;98932.56;5071656;28;20214;-59
2022/01/05 00:52:37;;;;;;;32.40;20.10;;;;;;;5.83;100.00;98942.75;5072709;28;20196;-62
2022/01/05 00:55:04;;;;;;;30.47;19.50;;;;;;;5.88;100.00;98939.22;5072316;28;20200;-63
2022/01/05 00:57:31;;;;;;;28.27;18.60;;;;;;;5.89;100.00;98940.94;5072197;28;20226;-63
2022/01/05 00:59:58;;;;;;;33.33;19.30;;;;;;;5.77;100.00;98934.25;5072679;28;20631;-63
2022/01/05 01:02:25;;;;;;;30.90;19.33;;;;;;;5.76;100.00;98930.00;5072195;28;20206;-63
2022/01/05 01:04:54;;;;;;;28.23;16.87;;;;;;;5.82;100.00;98930.75;5072126;28;20282;-62
2022/01/05 01:07:21;;;;;;;27.73;18.17;;;;;;;5.92;100.00;98923.72;5072007;28;20203;-60
2022/01/05 01:09:48;;;;;;;27.30;17.90;;;;;;;6.04;100.00;98930.34;5072119;28;20295;-62
2022/01/05 01:12:14;;;;;;;26.40;16.93;;;;;;;5.92;100.00;98921.13;5070843;28;20604;-62
2022/01/05 01:14:41;;;;;;;26.87;17.23;;;;;;;5.90;100.00;98922.03;5070561;28;20215;-64
2022/01/05 01:17:08;;;;;;;27.57;17.40;;;;;;;5.85;100.00;98922.13;5070782;28;20319;-61
2022/01/05 01:19:35;;;;;;;29.80;17.13;;;;;;;5.80;100.00;98916.19;5070697;28;20198;-60
2022/01/05 01:22:04;;;;;;;28.43;17.80;;;;;;;5.77;100.00;98916.25;5071411;28;20198;-63
2022/01/05 01:24:31;;;;;;;25.07;16.70;;;;;;;5.79;100.00;98904.19;5071820;28;20196;-63
2022/01/05 01:26:58;;;;;;;24.70;17.23;;;;;;;5.84;100.00;98908.38;5071707;28;20243;-63
2022/01/05 01:29:25;;;;;;;33.60;19.13;;;;;;;5.88;100.00;98904.03;5071772;28;20202;-63
2022/01/05 01:31:52;;;;;;;31.20;18.50;;;;;;;5.81;100.00;98887.84;5071875;28;20578;-62
2022/01/05 01:34:19;;;;;;;31.17;18.20;;;;;;;5.78;100.00;98898.19;5071926;28;20778;-61
2022/01/05 01:36:46;;;;;;;28.63;18.53;;;;;;;5.83;100.00;98887.81;5071170;28;20234;-62
2022/01/05 01:39:14;;;;;;;31.83;19.23;;;;;;;5.62;100.00;98873.63;5071772;28;20196;-62
2022/01/05 01:41:41;;;;;;;30.53;18.53;;;;;;;5.62;100.00;98896.81;5070735;28;20192;-60
2022/01/05 01:44:08;;;;;;;28.03;19.90;;;;;;;5.63;100.00;98895.06;5070339;28;20195;-62
2022/01/05 01:46:35;;;;;;;30.63;18.67;;;;;;;5.61;100.00;98879.66;5070052;28;20207;-62
2022/01/05 01:49:03;;;;;;;32.53;18.77;;;;;;;5.62;100.00;98883.09;5069985;28;20192;-60
2022/01/05 01:51:30;;;;;;;26.43;18.60;;;;;;;5.73;100.00;98891.44;5070364;28;20199;-60
2022/01/05 01:53:57;;;;;;;27.53;18.67;;;;;;;5.71;100.00;98882.91;5071462;28;20200;-62
2022/01/05 01:56:27;;;;;;;26.77;17.77;;;;;;;5.72;100.00;98882.88;5071228;28;20206;-63
2022/01/05 01:58:54;;;;;;;32.13;19.73;;;;;;;5.80;100.00;98891.28;5071267;28;20220;-62
2022/01/05 02:01:21;;;;;;;30.13;18.70;;;;;;;5.73;100.00;98889.72;5071093;28;20287;-61
2022/01/05 02:03:48;;;;;;;30.47;18.67;;;;;;;5.62;100.00;98881.34;5070937;28;20202;-63
2022/01/05 02:06:15;;;;;;;29.17;18.77;;;;;;;5.50;100.00;98879.00;5071172;28;20196;-59
2022/01/05 02:08:42;;;;;;;25.47;17.23;;;;;;;5.48;100.00;98883.34;5071025;28;20198;-60
2022/01/05 02:11:11;;;;;;;29.63;18.80;;;;;;;5.53;100.00;98889.22;5070759;28;20200;-60
2022/01/05 02:13:40;;;;;;;30.13;18.40;;;;;;;5.53;100.00;98881.50;5069482;28;20662;-61
2022/01/05 02:16:07;;;;;;;34.57;19.40;;;;;;;5.26;100.00;98877.72;5069582;28;20196;-60
2022/01/05 02:21:20;;;;;;;31.20;19.87;;;;;;;5.04;100.00;98855.81;5069452;28;20801;-61
2022/01/05 02:23:47;;;;;;;36.07;20.37;;;;;;;5.07;100.00;98873.78;5070446;28;20202;-59
2022/01/05 02:26:14;;;;;;;30.57;19.73;;;;;;;5.09;100.00;98866.88;5070029;28;20651;-59
2022/01/05 02:28:42;;;;;;;31.57;19.53;;;;;;;5.19;100.00;98872.72;5070506;28;20228;-60
2022/01/05 02:31:09;;;;;;;30.53;18.70;;;;;;;5.18;100.00;98869.31;5070600;28;20203;-63
2022/01/05 02:33:36;;;;;;;28.77;19.37;;;;;;;5.25;100.00;98883.75;5070633;28;20275;-60
2022/01/05 02:36:04;;;;;;;31.53;18.87;;;;;;;5.22;100.00;98875.22;5070385;28;20326;-62
2022/01/05 02:38:33;;;;;;;31.33;18.77;;;;;;;5.17;100.00;98877.03;5070313;28;20282;-60
2022/01/05 02:41:07;;;;;;;32.20;19.23;;;;;;;5.15;100.00;98883.94;5070463;28;20188;-63
2022/01/05 02:43:34;;;;;;;31.77;18.93;;;;;;;5.13;100.00;98883.09;5070103;28;20630;-61
2022/01/05 02:46:01;;;;;;;34.27;19.83;;;;;;;5.07;100.00;98872.06;5069114;28;20621;-60
2022/01/05 02:48:28;;;;;;;28.63;19.20;;;;;;;5.08;100.00;98888.31;5069129;28;20732;-61
2022/01/05 02:50:57;;;;;;;27.33;17.40;;;;;;;5.08;100.00;98884.03;5068997;28;20313;-60
2022/01/05 02:53:24;;;;;;;28.67;18.77;;;;;;;5.01;100.00;98884.16;5069146;28;20200;-60
2022/01/05 02:55:53;;;;;;;30.47;18.23;;;;;;;5.16;100.00;98883.06;5070255;28;20206;-60
2022/01/05 02:58:20;;;;;;;27.87;18.13;;;;;;;5.07;100.00;98872.06;5070173;28;20219;-60
2022/01/05 03:00:47;;;;;;;27.40;18.00;;;;;;;4.96;100.00;98865.41;5070043;28;20287;-62
2022/01/05 03:03:15;;;;;;;27.57;18.13;;;;;;;5.05;100.00;98863.53;5070151;28;20192;-62
2022/01/05 03:05:42;;;;;;;29.73;17.90;;;;;;;5.07;100.00;98866.91;5069455;28;20337;-61
2022/01/05 03:08:09;;;;;;;28.93;17.90;;;;;;;4.95;100.00;98861.97;5069478;28;20192;-59
2022/01/05 03:10:36;;;;;;;28.10;17.17;;;;;;;4.95;100.00;98856.84;5070336;28;20594;-60
2022/01/05 03:13:04;;;;;;;25.53;17.27;;;;;;;4.90;100.00;98844.91;5069859;28;20385;-60
2022/01/05 03:15:31;;;;;;;28.23;17.07;;;;;;;5.08;100.00;98858.31;5069522;28;20196;-60
2022/01/05 03:17:58;;;;;;;25.33;16.20;;;;;;;5.16;100.00;98857.34;5068430;28;20307;-62
2022/01/05 03:20:28;;;;;;;25.87;16.90;;;;;;;5.16;100.00;98868.47;5068504;28;20249;-62
2022/01/05 03:22:55;;;;;;;25.33;16.13;;;;;;;5.14;100.00;98862.50;5068553;28;20203;-62
2022/01/05 03:25:22;;;;;;;23.27;15.80;;;;;;;5.19;100.00;98849.56;5068969;28;20590;-62
2022/01/05 03:27:51;;;;;;;27.00;16.97;;;;;;;5.09;100.00;98854.00;5069860;28;20213;-60
2022/01/05 03:30:22;;;;;;;27.30;17.77;;;;;;;4.95;100.00;98846.56;5069840;28;20202;-61
2022/01/05 03:35:32;;;;;;;30.23;19.33;;;;;;;4.64;100.00;98841.03;5069368;28;20653;-61
2022/01/05 03:38:00;;;;;;;29.00;18.53;;;;;;;4.70;100.00;98850.38;5071270;28;20282;-60
2022/01/05 03:40:28;;;;;;;31.93;18.53;;;;;;;4.56;100.00;98848.03;5073724;28;20202;-63
2022/01/05 03:42:55;;;;;;;26.93;16.03;;;;;;;4.63;100.00;98851.34;5074001;28;20187;-62
2022/01/05 03:45:24;;;;;;;22.17;15.50;;;;;;;4.40;100.00;98836.31;5073641;28;20774;-60
2022/01/05 03:47:51;;;;;;;24.87;15.40;;;;;;;4.52;100.00;98842.94;5073052;28;20235;-61
2022/01/05 03:50:18;;;;;;;23.63;14.47;;;;;;;4.68;100.00;98841.84;5072461;28;20231;-60
2022/01/05 03:52:44;;;;;;;22.57;15.20;;;;;;;4.58;100.00;98833.44;5072558;28;20708;-60
2022/01/05 03:55:11;;;;;;;25.73;16.23;;;;;;;4.49;100.00;98832.75;5072435;28;20203;-60
2022/01/05 03:57:38;;;;;;;23.27;16.00;;;;;;;4.44;100.00;98804.53;5072949;28;20259;-60
2022/01/05 04:00:07;;;;;;;26.57;16.70;;;;;;;4.37;100.00;98802.94;5073281;28;20210;-61
2022/01/05 04:02:35;;;;;;;26.63;16.77;;;;;;;4.57;100.00;98834.31;5053363;28;20246;-62
2022/01/05 04:05:02;;;;;;;29.80;17.13;;;;;;;4.52;100.00;98817.25;5072077;28;20290;-62
2022/01/05 04:07:29;;;;;;;30.37;18.87;;;;;;;4.49;100.00;98825.88;5071799;28;20206;-62
2022/01/05 04:09:56;;;;;;;38.30;21.83;;;;;;;4.43;100.00;98830.25;5070244;28;20225;-62
2022/01/05 04:12:23;;;;;;;31.50;20.23;;;;;;;4.33;100.00;98840.66;5067792;28;20283;-60
2022/01/05 04:14:50;;;;;;;28.73;18.73;;;;;;;4.30;100.00;98843.28;5070176;28;20209;-59
2022/01/05 04:17:17;;;;;;;27.03;16.83;;;;;;;4.21;100.00;98824.56;5070548;28;20210;-60
2022/01/05 04:19:45;;;;;;;22.50;15.83;;;;;;;4.09;100.00;98832.44;5068137;28;20211;-61
2022/01/05 04:22:12;;;;;;;25.20;15.47;;;;;;;4.14;100.00;98830.69;5070590;28;20203;-62
2022/01/05 04:24:39;;;;;;;26.43;16.63;;;;;;;4.03;100.00;98833.41;5070279;28;20198;-62
2022/01/05 04:27:07;;;;;;;22.27;16.33;;;;;;;4.14;100.00;98841.81;5070048;28;20206;-60
2022/01/05 04:29:34;;;;;;;21.63;16.13;;;;;;;4.24;100.00;98840.81;5070193;28;20282;-59
2022/01/05 04:32:01;;;;;;;26.63;16.73;;;;;;;4.17;100.00;98844.34;5070645;28;20598;-59
2022/01/05 04:34:28;;;;;;;30.10;18.53;;;;;;;4.12;100.00;98845.25;5070301;28;20590;-59
2022/01/05 04:36:56;;;;;;;42.77;27.77;;;;;;;3.98;100.00;98818.03;5070203;28;20726;-60
2022/01/05 04:39:24;;;;;;;37.73;22.50;;;;;;;4.18;100.00;98843.44;5067545;28;20599;-60
2022/01/05 04:41:51;;;;;;;32.37;21.20;;;;;;;4.20;100.00;98844.28;5070303;28;20593;-60
2022/01/05 04:44:18;;;;;;;38.77;22.50;;;;;;;4.25;100.00;98846.78;5069830;28;20194;-61
2022/01/05 04:46:44;;;;;;;37.87;21.67;;;;;;;4.36;100.00;98847.47;5067753;28;20198;-60
2022/01/05 04:49:11;;;;;;;35.07;19.97;;;;;;;4.34;100.00;98850.06;5070800;28;20591;-62
2022/01/05 04:51:38;;;;;;;27.60;17.63;;;;;;;4.31;100.00;98854.41;5070179;28;20210;-62
2022/01/05 04:54:07;;;;;;;28.53;17.33;;;;;;;4.34;100.00;98856.94;5069869;28;21052;-62
2022/01/05 04:56:34;;;;;;;26.33;16.67;;;;;;;4.28;100.00;98855.31;5069787;28;20195;-61
2022/01/05 04:59:01;;;;;;;26.50;16.73;;;;;;;4.33;100.00;98856.06;5070719;28;20230;-61
2022/01/05 05:01:28;;;;;;;24.63;16.33;;;;;;;4.44;100.00;98862.78;5071481;28;20196;-60
2022/01/05 05:03:55;;;;;;;29.97;17.10;;;;;;;4.38;100.00;98869.72;5072053;28;20700;-60
2022/01/05 05:06:22;;;;;;;26.40;16.70;;;;;;;4.34;100.00;98874.91;5071881;28;20199;-62
2022/01/05 05:08:50;;;;;;;29.07;17.03;;;;;;;4.26;100.00;98869.88;5070876;28;20196;-62
2022/01/05 05:11:18;;;;;;;26.90;16.10;;;;;;;4.19;100.00;98857.97;5071501;28;20192;-61
2022/01/05 05:13:45;;;;;;;27.97;16.10;;;;;;;4.18;100.00;98866.56;5071620;28;20199;-62
2022/01/05 05:16:12;;;;;;;33.20;18.83;;;;;;;4.08;100.00;98859.00;5065755;28;20229;-61
2022/01/05 05:18:39;;;;;;;36.67;19.33;;;;;;;3.99;100.00;98865.97;5051020;28;20234;-61
2022/01/05 05:21:07;;;;;;;32.00;18.10;;;;;;;4.10;100.00;98859.84;5057627;28;20222;-61
2022/01/05 05:23:34;;;;;;;35.03;19.57;;;;;;;4.09;100.00;98861.56;5071508;28;20704;-62
2022/01/05 05:26:01;;;;;;;33.73;18.53;;;;;;;3.96;100.00;98836.91;5071208;28;20228;-62
2022/01/05 05:28:29;;;;;;;36.20;18.77;;;;;;;4.10;100.00;98860.69;5071234;28;20259;-61
2022/01/05 05:30:56;;;;;;;32.83;19.33;;;;;;;4.20;100.00;98859.69;5071372;28;20692;-61
2022/01/05 05:33:23;;;;;;;34.00;18.47;;;;;;;4.12;100.00;98847.81;5070865;28;20220;-61
2022/01/05 05:35:50;;;;;;;38.10;19.10;;;;;;;4.23;100.00;98871.63;5069663;28;20241;-61
2022/01/05 05:38:17;;;;;;;34.30;19.47;;;;;;;4.16;100.00;98868.31;5070215;28;20224;-60
2022/01/05 05:40:44;;;;;;;34.00;20.43;;;;;;;3.93;100.00;98872.91;5067185;28;20303;-61
2022/01/05 05:43:11;;;;;;;32.53;19.63;;;;;;;3.97;100.00;98879.69;5069700;28;20218;-60
2022/01/05 05:45:40;;;;;;;37.30;20.40;;;;;;;3.94;100.00;98884.88;5069957;28;20700;-61
2022/01/05 05:48:07;;;;;;;35.40;20.43;;;;;;;3.95;100.00;98884.00;5069998;28;20230;-61
2022/01/05 05:50:34;;;;;;;38.83;20.67;;;;;;;4.03;100.00;98889.03;5069269;28;20314;-61
2022/01/05 05:53:01;;;;;;;32.17;18.90;;;;;;;3.98;100.00;98873.69;5069917;28;20223;-62
2022/01/05 05:55:28;;;;;;;37.03;19.53;;;;;;;4.14;100.00;98890.59;5069902;28;20240;-61
2022/01/05 05:57:55;;;;;;;28.27;18.03;;;;;;;4.15;100.00;98899.16;5069834;28;20756;-61
2022/01/05 06:00:22;;;;;;;22.73;16.33;;;;;;;4.08;100.00;98895.78;5069756;28;20229;-60
2022/01/05 06:02:50;;;;;;;23.47;15.17;;;;;;;4.19;100.00;98893.94;5069086;28;20244;-60
2022/01/05 06:05:18;;;;;;;27.37;16.07;;;;;;;4.24;100.00;98893.88;5068622;28;20216;-60
2022/01/05 06:07:44;;;;;;;23.87;14.70;;;;;;;4.14;100.00;98890.59;5070175;28;20222;-60
2022/01/05 06:10:11;;;;;;;26.07;16.50;;;;;;;4.12;100.00;98914.59;5069918;28;20303;-60
2022/01/05 06:12:38;;;;;;;23.63;15.97;;;;;;;3.82;100.00;98908.97;5070114;28;20234;-60
2022/01/05 06:15:06;;;;;;;31.03;16.73;;;;;;;3.86;100.00;98909.75;5069617;28;20593;-60
2022/01/05 06:17:33;;;;;;;25.87;16.37;;;;;;;3.80;100.00;98907.28;5069745;28;20218;-60
2022/01/05 06:20:03;;;;;;;24.17;16.97;;;;;;;3.86;100.00;98912.34;5069134;28;20227;-61
2022/01/05 06:22:30;;;;;;;31.63;17.77;;;;;;;4.04;100.00;98917.25;5067968;28;20247;-60
2022/01/05 06:24:57;;;;;;;31.87;18.53;;;;;;;4.14;100.00;98916.28;5069613;28;20742;-61
2022/01/05 06:27:24;;;;;;;27.37;16.97;;;;;;;4.28;100.00;98916.97;5069790;28;20302;-61
2022/01/05 06:29:52;;;;;;;29.97;18.00;;;;;;;4.38;100.00;98923.66;5069471;28;20223;-60
2022/01/05 06:32:19;;;;;;;35.13;17.97;;;;;;;4.42;100.00;98921.03;5070177;28;20220;-60
2022/01/05 06:34:46;;;;;;;35.53;19.33;;;;;;;4.45;100.00;98927.00;5069674;28;20230;-60
2022/01/05 06:37:16;;;;;;;28.50;17.37;;;;;;;4.28;100.00;98940.06;5069679;28;20273;-60
2022/01/05 06:39:43;;;;;;;33.37;17.90;;;;;;;4.24;100.00;98928.13;5069741;28;20231;-60
2022/01/05 06:42:10;;;;;;;33.53;18.13;;;;;;;4.34;100.00;98939.13;5069853;28;20265;-60
2022/01/05 06:44:37;;;;;;;30.67;18.43;;;;;;;4.46;100.00;98932.97;5069686;28;20224;-63
2022/01/05 06:47:04;;;;;;;33.57;19.03;;;;;;;4.45;100.00;98939.00;5070030;28;20766;-60
2022/01/05 06:49:32;;;;;;;28.67;18.27;;;;;;;4.59;100.00;98939.66;5069351;28;20224;-62
2022/01/05 06:51:59;;;;;;;28.50;17.77;;;;;;;4.64;100.00;98938.72;5069536;28;20251;-60
2022/01/05 06:54:27;;;;;;;35.23;20.30;;;;;;;4.68;100.00;98942.94;5069892;28;20609;-61
2022/01/05 06:56:54;;;;;;;33.33;20.33;;;;;;;4.74;100.00;98944.56;5069825;28;20232;-59
2022/01/05 06:59:21;;;;;;;35.70;21.63;;;;;;;4.79;100.00;98949.66;5069877;28;20239;-59
2022/01/05 07:01:48;;;;;;;33.00;19.47;;;;;;;4.90;100.00;98940.91;5069996;28;20739;-60
2022/01/05 07:04:15;;;;;;;30.80;19.77;;;;;;;5.08;100.00;98950.91;5069459;28;20318;-60
2022/01/05 07:06:42;;;;;;;41.67;21.00;;;;;;;5.02;100.00;98958.72;5063215;28;20250;-60
2022/01/05 07:09:09;;;;;;;40.07;21.60;;;;;;;5.00;100.00;98954.47;5051619;28;20242;-60
2022/01/05 07:11:38;;;;;;;39.20;21.90;;;;;;;5.19;100.00;98955.03;5049462;28;20300;-61
2022/01/05 07:14:05;;;;;;;39.17;21.10;;;;;;;5.31;100.00;98957.38;5049074;28;20224;-60
2022/01/05 07:16:32;;;;;;;36.10;21.00;;;;;;;5.34;100.00;98952.19;5049208;28;20223;-60
2022/01/05 07:18:59;;;;;;;39.63;20.63;;;;;;;5.46;100.00;98946.84;5062869;28;20255;-61
2022/01/05 07:21:26;;;;;;;62.63;22.30;;;;;;;5.47;100.00;98951.13;5062278;28;20224;-61
2022/01/05 07:23:53;;;;;;;41.30;19.97;;;;;;;5.58;100.00;98943.22;5068563;28;20277;-61
2022/01/05 07:26:21;;;;;;;51.90;20.17;;;;;;;5.59;100.00;98935.47;5048998;28;20669;-63
2022/01/05 07:28:49;;;;;;;37.80;18.97;;;;;;;5.54;100.00;98938.97;5062040;28;20615;-63
2022/01/05 07:31:16;;;;;;;34.00;17.57;;;;;;;5.34;100.00;98921.31;5069407;28;20226;-59
2022/01/05 07:33:43;;;;;;;104.73;24.07;;;;;;;5.55;100.00;98945.84;5062133;28;20243;-61
2022/01/05 07:36:10;;;;;;;42.90;19.57;;;;;;;5.64;100.00;98943.13;5048932;28;20236;-60
2022/01/05 07:38:37;;;;;;;105.57;25.67;;;;;;;5.67;100.00;98933.59;5049227;28;20303;-60
2022/01/05 07:41:04;;;;;;;43.23;19.97;;;;;;;5.60;100.00;98944.03;5057464;28;20225;-60
2022/01/05 07:43:31;;;;;;;38.73;18.20;;;;;;;5.61;100.00;98949.16;5049409;28;20592;-63
2022/01/05 07:46:00;;;;;;;33.00;18.87;;;;;;;5.62;100.00;98942.28;5048833;28;20303;-60
2022/01/05 07:48:26;;;;;;;31.27;18.97;;;;;;;5.68;100.00;98943.00;5048795;28;20216;-62
2022/01/05 07:50:54;;;;;;;29.60;18.50;;;;;;;5.86;100.00;98952.16;5053766;28;20228;-61
2022/01/05 07:53:21;;;;;;;90.73;23.30;;;;;;;5.93;100.00;98947.75;5069225;28;20711;-62
2022/01/05 07:55:48;;;;;;;128.80;25.17;;;;;;;6.04;100.00;98945.81;5068812;28;20738;-61
2022/01/05 07:58:16;;;;;;;57.60;18.07;;;;;;;6.05;100.00;98948.34;5069368;28;20220;-60
2022/01/05 08:00:42;;;;;;;32.13;17.63;;;;;;;6.08;100.00;98953.47;5069207;28;20693;-60
2022/01/05 08:03:11;;;;;;;28.13;17.77;;;;;;;6.14;100.00;98952.47;5068452;28;20737;-60
2022/01/05 08:05:38;;;;;;;27.23;16.67;;;;;;;6.21;100.00;98954.03;5069139;28;20307;-60
2022/01/05 08:08:05;;;;;;;41.17;18.87;;;;;;;6.27;100.00;98951.34;5068688;28;20211;-60
2022/01/05 08:10:32;;;;;;;28.53;18.00;;;;;;;6.30;100.00;98948.72;5068867;28;20263;-60
2022/01/05 08:12:59;;;;;;;28.37;18.23;;;;;;;6.37;100.00;98950.28;5068877;28;20218;-59
2022/01/05 08:15:26;;;;;;;27.50;17.57;;;;;;;6.50;100.00;98956.03;5069026;28;20223;-60
2022/01/05 08:17:53;;;;;;;30.57;18.23;;;;;;;6.48;100.00;98961.22;5067838;28;20323;-60
2022/01/05 08:20:21;;;;;;;28.57;19.20;;;;;;;6.25;100.00;98923.91;5074284;28;20239;-60
2022/01/05 08:22:48;;;;;;;25.10;17.73;;;;;;;6.51;100.00;98971.47;5089056;28;20286;-59
2022/01/05 08:25:17;;;;;;;27.47;18.43;;;;;;;6.57;100.00;98968.75;5052779;28;20901;-60
2022/01/05 08:27:47;;;;;;;25.53;17.70;;;;;;;6.72;100.00;98964.16;5073294;28;20567;-60
2022/01/05 08:30:16;;;;;;;30.90;18.47;;;;;;;6.78;100.00;98962.25;5072881;28;20188;-60
2022/01/05 08:32:43;;;;;;;25.87;16.80;;;;;;;6.97;100.00;98962.72;5071893;28;20223;-60
2022/01/05 08:35:11;;;;;;;27.40;17.43;;;;;;;7.03;100.00;98962.56;5072681;28;20239;-61
2022/01/05 08:37:43;;;;;;;27.00;19.10;;;;;;;7.15;100.00;98961.41;5072644;28;20199;-60
2022/01/05 08:40:11;;;;;;;27.83;18.17;;;;;;;7.22;100.00;98953.47;5072882;28;20223;-60
2022/01/05 08:42:38;;;;;;;27.23;18.10;;;;;;;7.17;100.00;98950.19;5072818;28;20196;-60
2022/01/05 08:45:06;;;;;;;29.67;18.97;;;;;;;7.22;100.00;98944.94;5072855;28;20690;-59
2022/01/05 08:47:32;;;;;;;25.03;18.27;;;;;;;7.25;100.00;98930.19;5072256;28;20235;-60
2022/01/05 08:49:59;;;;;;;29.00;18.17;;;;;;;7.14;100.00;98919.28;5072500;28;20202;-60
2022/01/05 08:52:26;;;;;;;33.60;18.87;;;;;;;7.20;100.00;98924.31;5072533;28;20292;-60
2022/01/05 08:54:55;;;;;;;26.57;16.60;;;;;;;7.31;100.00;98926.63;5072357;28;20647;-60
2022/01/05 08:57:22;;;;;;;23.77;17.07;;;;;;;7.29;100.00;98907.75;5072330;28;20218;-59
2022/01/05 09:03:20;;;;;;;36.77;19.83;;;;;;;7.32;100.00;98917.16;5072305;28;20891;-59
2022/01/05 09:05:48;;;;;;;34.27;19.57;;;;;;;7.43;100.00;98915.13;5064102;28;20200;-59
2022/01/05 09:08:15;;;;;;;42.50;20.97;;;;;;;7.53;100.00;98911.44;5051998;28;20211;-59
2022/01/05 09:10:44;;;;;;;35.33;20.83;;;;;;;7.48;100.00;98919.28;5051707;28;20214;-62
2022/01/05 09:13:12;;;;;;;32.83;20.93;;;;;;;7.59;100.00;98919.00;5052084;28;20200;-61
2022/01/05 09:15:41;;;;;;;36.13;21.73;;;;;;;7.71;100.00;98915.25;5053800;28;20624;-61
2022/01/05 09:18:08;;;;;;;32.43;21.10;;;;;;;7.79;100.00;98897.81;5051133;28;20216;-61
2022/01/05 09:20:35;;;;;;;29.20;19.37;;;;;;;7.89;100.00;98901.84;5051008;28;20243;-60
2022/01/05 09:23:03;;;;;;;30.07;19.33;;;;;;;7.94;100.00;98903.41;5050977;28;20231;-60
2022/01/05 09:25:30;;;;;;;32.90;18.53;;;;;;;7.88;100.00;98884.66;5051389;28;20662;-61
2022/01/05 09:27:58;;;;;;;27.50;19.27;;;;;;;8.07;100.00;98890.13;5050821;28;20228;-60
2022/01/05 09:30:27;;;;;;;27.87;17.47;;;;;;;8.06;100.00;98878.09;5050859;28;20227;-62
2022/01/05 09:32:54;;;;;;;25.80;17.77;;;;;;;8.08;100.00;98878.91;5050903;28;20258;-62
2022/01/05 09:35:23;;;;;;;29.33;17.63;;;;;;;8.12;100.00;98873.63;5050817;28;20244;-62
2022/01/05 09:38:08;;;;;;;27.23;17.93;;;;;;;8.19;100.00;98859.59;5050636;28;20228;-62
2022/01/05 09:43:22;;;;;;;29.97;19.80;;;;;;;8.43;100.00;98858.06;5071072;28;20709;-62
2022/01/05 09:46:06;;;;;;;25.73;18.40;;;;;;;8.59;100.00;98855.81;5070412;28;20299;-62
2022/01/05 09:48:59;;;;;;;30.83;17.53;;;;;;;8.66;100.00;98857.34;5070791;28;20224;-64
2022/01/05 09:51:31;;;;;;;25.83;18.60;;;;;;;8.72;100.00;98850.22;5070827;28;20220;-61
2022/01/05 09:54:02;;;;;;;27.33;19.27;;;;;;;8.81;100.00;98848.22;5070966;28;20226;-61
2022/01/05 09:56:30;;;;;;;30.80;19.77;;;;;;;8.83;100.00;98847.28;5070144;28;20231;-62
2022/01/05 09:59:02;;;;;;;34.47;21.47;;;;;;;8.90;100.00;98840.19;5070498;28;20236;-60
2022/01/05 10:01:30;;;;;;;33.03;21.33;;;;;;;8.95;100.00;98846.91;5070684;28;20619;-59
2022/01/05 10:03:58;;;;;;;29.03;20.33;;;;;;;9.05;100.00;98840.50;5070326;28;20232;-59
2022/01/05 10:06:25;;;;;;;32.20;21.17;;;;;;;9.12;100.00;98836.00;5070454;28;20234;-62
2022/01/05 10:08:52;;;;;;;33.77;23.73;;;;;;;9.28;100.00;98831.97;5070130;28;20717;-62
2022/01/05 10:11:22;;;;;;;31.50;22.03;;;;;;;9.40;100.00;98828.09;5069647;28;20220;-62
2022/01/05 10:13:49;;;;;;;31.63;21.37;;;;;;;9.61;100.00;98826.50;5070286;28;20259;-62
2022/01/05 10:16:18;;;;;;;29.67;20.07;;;;;;;9.65;100.00;98821.16;5069888;28;20234;-64
2022/01/05 10:18:46;;;;;;;27.23;19.00;;;;;;;9.68;100.00;98810.69;5070350;28;20222;-62
2022/01/05 10:21:14;;;;;;;31.47;19.90;;;;;;;9.72;100.00;98817.44;5070096;28;20231;-62
2022/01/05 10:23:44;;;;;;;30.70;20.90;;;;;;;9.77;100.00;98814.69;5070065;28;20219;-61
2022/01/05 10:26:24;;;;;;;37.17;21.13;;;;;;;9.84;100.00;98805.78;5069556;28;20264;-59
2022/01/05 10:28:53;;;;;;;33.53;20.43;;;;;;;9.98;100.00;98807.88;5087644;28;20637;-61
2022/01/05 10:31:23;;;;;;;30.83;20.70;;;;;;;9.98;100.00;98798.34;5090050;28;20587;-60
2022/01/05 10:33:50;;;;;;;31.33;20.83;;;;;;;10.01;100.00;98798.22;5090328;28;20686;-62
2022/01/05 10:36:18;;;;;;;34.23;21.33;;;;;;;10.03;100.00;98785.22;5090802;28;20615;-62
2022/01/05 10:38:56;;;;;;;29.53;21.70;;;;;;;10.13;100.00;98784.81;5090936;28;20592;-62
2022/01/05 10:41:24;;;;;;;30.00;21.77;;;;;;;10.18;100.00;98790.66;5090759;28;20219;-64
2022/01/05 10:44:17;;;;;;;37.73;21.80;;;;;;;10.30;100.00;98791.09;5090800;28;20585;-62
2022/01/05 10:46:48;;;;;;;30.77;21.87;;;;;;;10.32;100.00;98786.69;5090484;28;20234;-62
2022/01/05 10:49:33;;;;;;;38.33;22.07;;;;;;;10.44;99.68;98779.28;5090507;28;20230;-62
2022/01/05 10:52:02;;;;;;;36.93;22.57;;;;;;;10.38;98.29;98757.94;5090676;28;20202;-60
2022/01/05 10:54:31;;;;;;;30.67;20.93;;;;;;;10.60;97.66;98779.53;5090561;28;20230;-60
2022/01/05 10:57:09;;;;;;;38.43;21.20;;;;;;;10.38;98.29;98744.97;5090390;28;20608;-59
2022/01/05 10:59:38;;;;;;;38.27;21.73;;;;;;;10.65;98.14;98774.13;5090572;28;20191;-64
2022/01/05 11:02:30;;;;;;;32.33;21.57;;;;;;;10.67;98.37;98767.13;5090709;28;20221;-61
2022/01/05 11:05:13;;;;;;;36.17;20.50;;;;;;;10.72;97.63;98766.00;5090463;28;20639;-60
2022/01/05 11:07:42;;;;;;;33.60;21.20;;;;;;;10.82;95.87;98767.34;5090244;28;20195;-59
2022/01/05 11:10:10;;;;;;;33.87;19.80;;;;;;;10.93;95.43;98769.50;5090567;28;20192;-59
2022/01/05 11:12:38;;;;;;;32.87;19.50;;;;;;;10.93;94.94;98766.06;5090246;28;20206;-60
2022/01/05 11:15:27;;;;;;;27.20;19.00;;;;;;;11.01;94.50;98767.41;5090583;28;20199;-60
2022/01/05 11:18:23;;;;;;;25.00;17.67;;;;;;;11.06;92.47;98760.25;5090162;28;20195;-59
2022/01/05 11:20:52;;;;;;;24.53;16.90;;;;;;;11.09;92.16;98761.88;5054182;28;20313;-60
2022/01/05 11:23:20;;;;;;;24.50;17.93;;;;;;;11.12;91.75;98759.16;5090342;28;20233;-59
2022/01/05 11:25:49;;;;;;;31.57;17.23;;;;;;;11.11;91.11;98739.28;5090142;28;20209;-61
2022/01/05 11:28:18;;;;;;;29.43;18.17;;;;;;;11.33;90.61;98753.03;5090043;28;20578;-62
2022/01/05 11:30:49;;;;;;;30.47;19.90;;;;;;;11.38;90.65;98748.50;5090061;28;20206;-61
2022/01/05 11:33:17;;;;;;;30.67;18.10;;;;;;;11.34;90.75;98727.91;5090081;28;20192;-61